createdAt,value
2023-12-18T00:02:27.284Z,101902.69
2023-12-18T00:04:55.435Z,101900.88
2023-12-18T00:07:23.200Z,101887.06
2023-12-18T00:09:51.186Z,101900.63
2023-12-18T00:12:18.978Z,101896.63
2023-12-18T00:14:46.829Z,101900.63
2023-12-18T00:17:16.321Z,101904.00
2023-12-18T00:19:44.151Z,101904.34
2023-12-18T00:22:12.043Z,101892.00
2023-12-18T00:24:39.834Z,101892.47
2023-12-18T00:27:07.931Z,101888.84
2023-12-18T00:29:35.714Z,101885.66
2023-12-18T00:32:03.919Z,101880.94
2023-12-18T00:34:33.081Z,101879.81
2023-12-18T00:37:00.892Z,101865.13
2023-12-18T00:39:28.875Z,101878.69
2023-12-18T00:41:56.882Z,101890.13
2023-12-18T00:44:24.675Z,101876.06
2023-12-18T00:46:52.430Z,101866.31
2023-12-18T00:49:21.021Z,101883.38
2023-12-18T00:51:50.277Z,101875.41
2023-12-18T00:54:18.038Z,101876.03
2023-12-18T00:56:45.809Z,101872.72
2023-12-18T00:59:14.106Z,101878.47
2023-12-18T01:01:43.181Z,101875.13
2023-12-18T01:04:11.149Z,101885.47
2023-12-18T01:06:39.611Z,101869.41
2023-12-18T01:09:09.716Z,101870.19
2023-12-18T01:11:38.066Z,101864.44
2023-12-18T01:14:06.013Z,101863.38
2023-12-18T01:16:33.986Z,101846.81
2023-12-18T01:19:01.968Z,101851.03
2023-12-18T01:21:30.504Z,101858.41
2023-12-18T01:23:58.276Z,101856.16
2023-12-18T01:26:27.446Z,101863.94
2023-12-18T01:28:55.400Z,101855.56
2023-12-18T01:31:24.216Z,101852.81
2023-12-18T01:33:55.114Z,101863.31
2023-12-18T01:36:23.496Z,101863.53
2023-12-18T01:38:51.748Z,101855.78
2023-12-18T01:41:19.565Z,101864.94
2023-12-18T01:43:48.967Z,101862.66
2023-12-18T01:46:22.772Z,101855.50
2023-12-18T01:48:51.837Z,101852.66
2023-12-18T01:51:20.471Z,101854.00
2023-12-18T01:53:51.115Z,101850.69
2023-12-18T01:56:22.354Z,101838.91
2023-12-18T01:58:52.622Z,101848.25
2023-12-18T02:01:20.914Z,101851.09
2023-12-18T02:03:48.147Z,101848.34
2023-12-18T02:06:16.803Z,101845.09
2023-12-18T02:08:45.856Z,101837.41
2023-12-18T02:11:14.668Z,101824.59
2023-12-18T02:13:42.810Z,101827.16
2023-12-18T02:16:12.418Z,101831.66
2023-12-18T02:18:45.029Z,101827.75
2023-12-18T02:21:13.344Z,101823.28
2023-12-18T02:23:42.697Z,101837.16
2023-12-18T02:26:11.045Z,101831.78
2023-12-18T02:28:39.051Z,101840.16
2023-12-18T02:31:07.349Z,101829.28
2023-12-18T02:33:35.401Z,101832.41
2023-12-18T02:36:03.908Z,101822.34
2023-12-18T02:38:31.996Z,101828.94
2023-12-18T02:41:01.103Z,101830.56
2023-12-18T02:43:29.122Z,101828.66
2023-12-18T02:45:56.878Z,101828.31
2023-12-18T02:48:24.923Z,101835.03
2023-12-18T02:50:52.729Z,101827.16
2023-12-18T02:53:20.500Z,101829.25
2023-12-18T02:55:48.636Z,101825.06
2023-12-18T02:58:18.447Z,101816.00
2023-12-18T03:00:46.829Z,101822.63
2023-12-18T03:03:14.692Z,101811.41
2023-12-18T03:05:43.077Z,101779.03
2023-12-18T03:08:10.903Z,101801.75
2023-12-18T03:10:38.629Z,101803.00
2023-12-18T03:13:06.595Z,101805.53
2023-12-18T03:15:35.803Z,101801.84
2023-12-18T03:18:04.047Z,101789.44
2023-12-18T03:20:31.840Z,101804.13
2023-12-18T03:22:59.537Z,101809.63
2023-12-18T03:25:27.407Z,101802.91
2023-12-18T03:27:55.240Z,101806.28
2023-12-18T03:30:23.333Z,101801.91
2023-12-18T03:32:52.557Z,101801.88
2023-12-18T03:35:20.295Z,101807.34
2023-12-18T03:37:48.016Z,101810.31
2023-12-18T03:40:15.974Z,101808.84
2023-12-18T03:42:44.260Z,101807.47
2023-12-18T03:45:12.099Z,101812.53
2023-12-18T03:47:40.078Z,101810.78
2023-12-18T03:50:11.631Z,101811.00
2023-12-18T03:52:39.404Z,101812.97
2023-12-18T03:55:08.378Z,101814.47
2023-12-18T03:57:36.139Z,101817.94
2023-12-18T04:00:05.250Z,101752.38
2023-12-18T04:02:40.660Z,101817.63
2023-12-18T04:05:10.356Z,101807.22
2023-12-18T04:07:38.392Z,101801.66
2023-12-18T04:10:07.155Z,101804.19
2023-12-18T04:12:35.351Z,101800.50
2023-12-18T04:15:03.100Z,101789.47
2023-12-18T04:17:31.363Z,101785.91
2023-12-18T04:19:59.173Z,101794.81
2023-12-18T04:22:28.316Z,101790.19
2023-12-18T04:24:56.046Z,101790.00
2023-12-18T04:27:24.028Z,101791.16
2023-12-18T04:29:52.325Z,101791.78
2023-12-18T04:32:20.106Z,101798.19
2023-12-18T04:34:48.287Z,101798.19
2023-12-18T04:37:16.178Z,101795.78
2023-12-18T04:39:46.224Z,101792.00
2023-12-18T04:42:13.994Z,101720.22
2023-12-18T04:44:41.991Z,101789.69
2023-12-18T04:47:10.039Z,101781.69
2023-12-18T04:49:37.978Z,101780.09
2023-12-18T04:52:07.618Z,101787.97
2023-12-18T04:54:35.400Z,101782.19
2023-12-18T04:57:04.946Z,101776.94
2023-12-18T04:59:32.972Z,101775.16
2023-12-18T05:02:01.273Z,101779.47
2023-12-18T05:04:29.109Z,101778.66
2023-12-18T05:06:57.054Z,101783.38
2023-12-18T05:09:25.047Z,101772.53
2023-12-18T05:11:52.786Z,101781.16
2023-12-18T05:14:21.992Z,101777.81
2023-12-18T05:16:49.665Z,101780.44
2023-12-18T05:19:17.739Z,101791.22
2023-12-18T05:21:45.635Z,101790.47
2023-12-18T05:24:13.429Z,101787.22
2023-12-18T05:26:41.128Z,101794.47
2023-12-18T05:29:09.555Z,101789.84
2023-12-18T05:31:38.715Z,101786.06
2023-12-18T05:34:06.944Z,101788.59
2023-12-18T05:36:35.414Z,101781.97
2023-12-18T05:39:03.180Z,101794.66
2023-12-18T05:41:31.288Z,101791.81
2023-12-18T05:43:59.051Z,101789.25
2023-12-18T05:46:26.918Z,101801.19
2023-12-18T05:48:56.074Z,101791.69
2023-12-18T05:51:25.529Z,101787.84
2023-12-18T05:53:53.260Z,101779.78
2023-12-18T05:56:20.971Z,101782.88
2023-12-18T05:58:48.890Z,101788.28
2023-12-18T06:01:16.744Z,101788.75
2023-12-18T06:03:44.855Z,101790.84
2023-12-18T06:06:14.050Z,101795.28
2023-12-18T06:08:42.152Z,101787.50
2023-12-18T06:11:09.889Z,101796.94
2023-12-18T06:13:40.141Z,101806.38
2023-12-18T06:16:08.694Z,101795.66
2023-12-18T06:18:36.769Z,101802.03
2023-12-18T06:21:05.252Z,101804.38
2023-12-18T06:23:34.478Z,101796.84
2023-12-18T06:26:03.553Z,101807.97
2023-12-18T06:28:31.706Z,101723.63
2023-12-18T06:31:00.386Z,101803.94
2023-12-18T06:33:28.696Z,101810.25
2023-12-18T06:35:56.880Z,101806.63
2023-12-18T06:38:24.752Z,101801.19
2023-12-18T06:40:53.877Z,101805.03
2023-12-18T06:43:21.849Z,101805.44
2023-12-18T06:45:49.892Z,101805.16
2023-12-18T06:48:17.703Z,101807.06
2023-12-18T06:50:45.503Z,101803.25
2023-12-18T06:53:13.382Z,101806.44
2023-12-18T06:55:41.124Z,101814.88
2023-12-18T06:58:10.160Z,101810.84
2023-12-18T07:00:41.149Z,101807.50
2023-12-18T07:03:10.122Z,101811.38
2023-12-18T07:05:38.139Z,101737.25
2023-12-18T07:08:06.833Z,101812.06
2023-12-18T07:10:34.626Z,101816.66
2023-12-18T07:13:02.382Z,101826.41
2023-12-18T07:15:31.785Z,101817.72
2023-12-18T07:17:59.712Z,101819.03
2023-12-18T07:20:27.857Z,101821.72
2023-12-18T07:22:55.678Z,101820.91
2023-12-18T07:25:23.944Z,101827.81
2023-12-18T07:27:52.268Z,101812.47
2023-12-18T07:30:21.652Z,101824.63
2023-12-18T07:32:52.402Z,101818.66
2023-12-18T07:35:20.487Z,101808.72
2023-12-18T07:37:48.310Z,101805.19
2023-12-18T07:40:16.162Z,101791.16
2023-12-18T07:42:44.426Z,101797.31
2023-12-18T07:45:13.135Z,101801.53
2023-12-18T07:47:42.339Z,101787.03
2023-12-18T07:50:11.015Z,101779.31
2023-12-18T07:52:39.081Z,101783.91
2023-12-18T07:55:07.781Z,101784.03
2023-12-18T07:57:35.535Z,101784.22
2023-12-18T08:00:04.514Z,101789.09
2023-12-18T08:02:39.506Z,101784.78
2023-12-18T08:05:07.860Z,101784.69
2023-12-18T08:07:36.939Z,101787.91
2023-12-18T08:10:05.042Z,101793.50
2023-12-18T08:12:34.635Z,101796.00
2023-12-18T08:15:03.393Z,101795.06
2023-12-18T08:17:31.222Z,101800.53
2023-12-18T08:19:58.956Z,101798.94
2023-12-18T08:22:27.006Z,101800.06
2023-12-18T08:24:56.400Z,101786.47
2023-12-18T08:27:24.412Z,101787.84
2023-12-18T08:29:52.150Z,101788.41
2023-12-18T08:32:20.109Z,101796.00
2023-12-18T08:34:49.385Z,101791.75
2023-12-18T08:37:17.158Z,101797.63
2023-12-18T08:39:44.826Z,101807.34
2023-12-18T08:42:14.973Z,101797.22
2023-12-18T08:44:42.628Z,101803.59
2023-12-18T08:47:10.884Z,101794.25
2023-12-18T08:49:38.603Z,101800.97
2023-12-18T08:52:07.231Z,101798.28
2023-12-18T08:54:35.223Z,101794.72
2023-12-18T08:57:03.009Z,101783.41
2023-12-18T08:59:32.101Z,101770.56
2023-12-18T09:01:59.785Z,101786.50
2023-12-18T09:04:27.622Z,101782.16
2023-12-18T09:06:55.359Z,101777.25
2023-12-18T09:09:23.806Z,101782.28
2023-12-18T09:11:51.571Z,101775.06
2023-12-18T09:14:19.281Z,101778.03
2023-12-18T09:16:49.158Z,101779.81
2023-12-18T09:19:17.744Z,101781.91
2023-12-18T09:21:45.606Z,101784.53
2023-12-18T09:24:13.402Z,101772.56
2023-12-18T09:26:41.397Z,101768.25
2023-12-18T09:29:09.058Z,101772.34
2023-12-18T09:31:37.149Z,101769.47
2023-12-18T09:34:06.478Z,101772.34
2023-12-18T09:36:34.280Z,101766.03
2023-12-18T09:39:02.591Z,101769.28
2023-12-18T09:41:30.660Z,101763.69
2023-12-18T09:43:58.439Z,101764.22
2023-12-18T09:46:27.727Z,101761.06
2023-12-18T09:48:56.207Z,101758.75
2023-12-18T09:51:26.359Z,101759.16
2023-12-18T09:53:55.497Z,101761.75
2023-12-18T09:56:24.553Z,101761.13
2023-12-18T09:58:57.257Z,101754.25
2023-12-18T10:01:25.345Z,101762.06
2023-12-18T10:03:53.176Z,101763.59
2023-12-18T10:06:22.419Z,101756.00
2023-12-18T10:08:52.530Z,101758.25
2023-12-18T10:11:26.776Z,101745.56
2023-12-18T10:13:56.170Z,101746.06
2023-12-18T10:16:24.382Z,101748.47
2023-12-18T10:18:53.570Z,101740.13
2023-12-18T10:21:24.059Z,101739.75
2023-12-18T10:23:54.880Z,101738.72
2023-12-18T10:26:23.509Z,101732.84
2023-12-18T10:28:52.287Z,101737.16
2023-12-18T10:31:20.815Z,101739.78
2023-12-18T10:33:49.216Z,101735.84
2023-12-18T10:36:17.805Z,101726.88
2023-12-18T10:38:50.125Z,101733.25
2023-12-18T10:41:21.099Z,101731.81
2023-12-18T10:43:50.210Z,101727.41
2023-12-18T10:46:18.493Z,101718.19
2023-12-18T10:48:50.198Z,101710.66
2023-12-18T10:51:22.142Z,101710.31
2023-12-18T10:53:51.006Z,101704.31
2023-12-18T10:56:23.190Z,101702.53
2023-12-18T10:58:52.752Z,101687.31
2023-12-18T11:01:21.582Z,101703.25
2023-12-18T11:03:49.819Z,101709.72
2023-12-18T11:06:20.202Z,101699.91
2023-12-18T11:08:49.226Z,101695.38
2023-12-18T11:11:18.803Z,101693.53
2023-12-18T11:14:04.562Z,101685.53
2023-12-18T11:16:43.347Z,101680.50
2023-12-18T11:19:23.210Z,101677.63
2023-12-18T11:21:55.255Z,101673.53
2023-12-18T11:24:23.245Z,101672.31
2023-12-18T11:26:52.700Z,101674.25
2023-12-18T11:29:49.670Z,101669.59
2023-12-18T11:32:42.157Z,101665.56
2023-12-18T11:35:11.446Z,101643.56
2023-12-18T11:37:43.874Z,101650.44
2023-12-18T11:40:37.486Z,101644.66
2023-12-18T11:43:06.561Z,101642.31
2023-12-18T11:45:36.906Z,101614.09
2023-12-18T11:48:06.781Z,101626.88
2023-12-18T11:50:37.083Z,101592.03
2023-12-18T11:53:08.349Z,101627.88
2023-12-18T11:55:48.234Z,101593.63
2023-12-18T11:58:16.940Z,101623.22
2023-12-18T12:00:47.074Z,101623.47
2023-12-18T12:03:15.685Z,101620.50
2023-12-18T12:05:44.489Z,101610.03
2023-12-18T12:08:12.834Z,101607.72
2023-12-18T12:10:42.281Z,101610.28
2023-12-18T12:13:17.987Z,101602.34
2023-12-18T12:15:54.761Z,101612.97
2023-12-18T12:18:22.619Z,101602.69
2023-12-18T12:20:50.743Z,101599.66
2023-12-18T12:23:18.610Z,101593.56
2023-12-18T12:25:48.455Z,101590.78
2023-12-18T12:28:17.779Z,101586.88
2023-12-18T12:30:46.752Z,101580.91
2023-12-18T12:33:17.669Z,101574.34
2023-12-18T12:35:45.791Z,101580.09
2023-12-18T12:38:18.245Z,101578.13
2023-12-18T12:40:47.522Z,101576.19
2023-12-18T12:43:17.124Z,101568.22
2023-12-18T12:45:45.036Z,101580.06
2023-12-18T12:48:14.701Z,101576.03
2023-12-18T12:50:45.257Z,101578.38
2023-12-18T12:53:13.028Z,101570.88
2023-12-18T12:55:41.723Z,101544.97
2023-12-18T12:58:12.303Z,101520.19
2023-12-18T13:00:40.680Z,101557.63
2023-12-18T13:03:10.768Z,101544.94
2023-12-18T13:05:38.643Z,101542.84
2023-12-18T13:08:07.788Z,101543.97
2023-12-18T13:10:34.631Z,101549.63
2023-12-18T13:13:02.551Z,101542.03
2023-12-18T13:15:30.514Z,101540.91
2023-12-18T13:17:59.996Z,101529.72
2023-12-18T13:20:29.581Z,101527.75
2023-12-18T13:22:57.843Z,101522.28
2023-12-18T13:25:26.819Z,101522.13
2023-12-18T13:27:55.093Z,101526.72
2023-12-18T13:30:22.937Z,101517.09
2023-12-18T13:32:50.717Z,101518.75
2023-12-18T13:35:18.627Z,101515.41
2023-12-18T13:37:46.634Z,101511.13
2023-12-18T13:40:14.876Z,101510.53
2023-12-18T13:42:44.046Z,101500.09
2023-12-18T13:45:12.160Z,101494.28
2023-12-18T13:47:40.649Z,101490.44
2023-12-18T13:50:10.397Z,101481.72
2023-12-18T13:52:39.805Z,101482.56
2023-12-18T13:55:08.340Z,101481.59
2023-12-18T13:57:43.246Z,101488.38
2023-12-18T14:00:20.840Z,101483.50
2023-12-18T14:02:49.805Z,101481.31
2023-12-18T14:05:17.920Z,101482.59
2023-12-18T14:07:46.058Z,101483.31
2023-12-18T14:10:13.912Z,101478.50
2023-12-18T14:12:41.913Z,101481.03
2023-12-18T14:15:12.540Z,101481.34
2023-12-18T14:17:41.964Z,101476.78
2023-12-18T14:20:10.933Z,101473.78
2023-12-18T14:22:39.924Z,101477.69
2023-12-18T14:25:08.731Z,101472.09
2023-12-18T14:27:36.684Z,101470.88
2023-12-18T14:30:05.425Z,101471.03
2023-12-18T14:32:33.156Z,101461.97
2023-12-18T14:35:02.377Z,101462.38
2023-12-18T14:37:30.504Z,101473.19
2023-12-18T14:40:00.712Z,101464.00
2023-12-18T14:42:28.580Z,101469.34
2023-12-18T14:44:56.632Z,101474.44
2023-12-18T14:47:24.664Z,101475.63
2023-12-18T14:49:52.437Z,101472.66
2023-12-18T14:52:21.784Z,101474.56
2023-12-18T14:54:49.480Z,101469.47
2023-12-18T14:57:17.142Z,101463.44
2023-12-18T14:59:45.367Z,101463.63
2023-12-18T15:02:13.085Z,101462.19
2023-12-18T15:04:41.176Z,101464.16
2023-12-18T15:07:09.302Z,101457.53
2023-12-18T15:09:38.759Z,101457.59
2023-12-18T15:12:07.289Z,101457.53
2023-12-18T15:14:35.479Z,101458.19
2023-12-18T15:17:05.999Z,101452.31
2023-12-18T15:19:37.222Z,101440.72
2023-12-18T15:22:05.642Z,101445.47
2023-12-18T15:24:33.398Z,101446.50
2023-12-18T15:27:02.839Z,101449.97
2023-12-18T15:29:31.033Z,101453.03
2023-12-18T15:31:59.079Z,101449.91
2023-12-18T15:34:27.100Z,101441.72
2023-12-18T15:36:55.224Z,101437.50
2023-12-18T15:39:24.447Z,101438.72
2023-12-18T15:41:52.816Z,101374.34
2023-12-18T15:44:22.357Z,101447.59
2023-12-18T15:46:50.025Z,101444.59
2023-12-18T15:49:19.484Z,101444.84
2023-12-18T15:51:47.257Z,101448.59
2023-12-18T15:54:15.027Z,101452.16
2023-12-18T15:56:44.565Z,101452.31
2023-12-18T15:59:12.497Z,101452.66
2023-12-18T16:01:47.190Z,101464.13
2023-12-18T16:04:15.451Z,101457.56
2023-12-18T16:06:43.661Z,101450.72
2023-12-18T16:09:12.108Z,101448.59
2023-12-18T16:11:41.112Z,101445.59
2023-12-18T16:14:09.092Z,101434.09
2023-12-18T16:16:37.614Z,101435.34
2023-12-18T16:19:06.897Z,101427.31
2023-12-18T16:21:34.798Z,101432.31
2023-12-18T16:24:02.454Z,101423.97
2023-12-18T16:26:35.836Z,101432.91
2023-12-18T16:29:06.162Z,101430.16
2023-12-18T16:31:34.267Z,101439.00
2023-12-18T16:34:03.116Z,101444.03
2023-12-18T16:36:32.363Z,101438.31
2023-12-18T16:39:00.158Z,101432.69
2023-12-18T16:41:32.454Z,101417.97
2023-12-18T16:44:00.464Z,101399.72
2023-12-18T16:46:37.316Z,101399.31
2023-12-18T16:49:11.397Z,101400.31
2023-12-18T16:51:40.941Z,101398.50
2023-12-18T16:54:09.000Z,101390.25
2023-12-18T16:56:37.947Z,101397.19
2023-12-18T16:59:06.014Z,101396.69
2023-12-18T17:01:33.899Z,101392.59
2023-12-18T17:04:02.226Z,101397.88
2023-12-18T17:06:30.235Z,101389.53
2023-12-18T17:08:59.564Z,101389.41
2023-12-18T17:11:27.500Z,101384.53
2023-12-18T17:13:55.497Z,101392.41
2023-12-18T17:16:23.778Z,101389.41
2023-12-18T17:18:51.971Z,101386.19
2023-12-18T17:21:20.185Z,101395.75
2023-12-18T17:23:48.606Z,101402.78
2023-12-18T17:26:17.978Z,101402.94
2023-12-18T17:28:45.779Z,101412.97
2023-12-18T17:31:13.611Z,101400.66
2023-12-18T17:33:41.933Z,101391.81
2023-12-18T17:36:09.782Z,101388.34
2023-12-18T17:38:37.532Z,101405.88
2023-12-18T17:41:05.684Z,101404.88
2023-12-18T17:43:34.910Z,101403.88
2023-12-18T17:46:02.729Z,101419.00
2023-12-18T17:48:30.986Z,101411.63
2023-12-18T17:51:01.583Z,101420.53
2023-12-18T17:53:29.477Z,101400.44
2023-12-18T17:55:57.911Z,101403.66
2023-12-18T17:58:25.645Z,101406.63
2023-12-18T18:00:54.814Z,101403.31
2023-12-18T18:03:23.077Z,101407.75
2023-12-18T18:05:50.989Z,101403.50
2023-12-18T18:08:18.864Z,101394.41
2023-12-18T18:10:48.229Z,101399.53
2023-12-18T18:13:16.343Z,101394.09
2023-12-18T18:15:44.383Z,101403.22
2023-12-18T18:18:14.192Z,101406.69
2023-12-18T18:20:42.136Z,101411.13
2023-12-18T18:23:09.919Z,101404.63
2023-12-18T18:25:40.385Z,101398.97
2023-12-18T18:28:09.020Z,101405.28
2023-12-18T18:30:37.312Z,101397.84
2023-12-18T18:33:07.736Z,101405.38
2023-12-18T18:35:38.669Z,101400.84
2023-12-18T18:38:06.680Z,101409.47
2023-12-18T18:40:34.593Z,101408.69
2023-12-18T18:43:02.405Z,101405.59
2023-12-18T18:45:30.711Z,101394.78
2023-12-18T18:47:58.686Z,101390.72
2023-12-18T18:50:27.611Z,101381.84
2023-12-18T18:52:56.980Z,101390.16
2023-12-18T18:55:24.844Z,101403.94
2023-12-18T18:57:53.522Z,101395.72
2023-12-18T19:00:21.749Z,101391.88
2023-12-18T19:02:50.135Z,101383.72
2023-12-18T19:05:18.864Z,101375.03
2023-12-18T19:07:47.524Z,101386.38
2023-12-18T19:10:17.005Z,101362.38
2023-12-18T19:12:45.453Z,101355.91
2023-12-18T19:15:13.328Z,101368.22
2023-12-18T19:17:42.529Z,101365.16
2023-12-18T19:20:12.000Z,101370.41
2023-12-18T19:22:41.319Z,101372.88
2023-12-18T19:25:09.291Z,101365.31
2023-12-18T19:27:40.278Z,101276.97
2023-12-18T19:30:09.405Z,101336.25
2023-12-18T19:32:37.321Z,101352.06
2023-12-18T19:35:06.573Z,101340.84
2023-12-18T19:37:34.445Z,101336.63
2023-12-18T19:40:02.652Z,101338.91
2023-12-18T19:42:30.736Z,101329.09
2023-12-18T19:44:59.967Z,101342.19
2023-12-18T19:47:27.888Z,101329.94
2023-12-18T19:49:56.079Z,101321.41
2023-12-18T19:52:23.949Z,101311.97
2023-12-18T19:54:51.809Z,101307.03
2023-12-18T19:57:19.741Z,101306.94
2023-12-18T19:59:47.582Z,101311.44
2023-12-18T20:02:17.255Z,101320.63
2023-12-18T20:04:45.118Z,101329.69
2023-12-18T20:07:12.884Z,101325.69
2023-12-18T20:09:40.645Z,101327.44
2023-12-18T20:12:09.387Z,101338.88
2023-12-18T20:14:36.990Z,101348.88
2023-12-18T20:17:04.980Z,101358.78
2023-12-18T20:19:34.425Z,101360.31
2023-12-18T20:22:02.272Z,101363.19
2023-12-18T20:24:30.039Z,101372.47
2023-12-18T20:26:58.008Z,101392.03
2023-12-18T20:29:25.690Z,101412.41
2023-12-18T20:31:53.887Z,101407.03
2023-12-18T20:34:21.772Z,101420.28
2023-12-18T20:36:50.864Z,101390.13
2023-12-18T20:39:18.560Z,101430.44
2023-12-18T20:41:47.459Z,101391.22
2023-12-18T20:44:15.281Z,101416.53
2023-12-18T20:46:43.763Z,101404.44
2023-12-18T20:49:11.773Z,101390.94
2023-12-18T20:51:43.179Z,101385.06
2023-12-18T20:54:12.465Z,101375.44
2023-12-18T20:56:40.334Z,101374.63
2023-12-18T20:59:08.359Z,101360.78
2023-12-18T21:01:36.646Z,101356.56
2023-12-18T21:04:04.495Z,101352.00
2023-12-18T21:06:32.336Z,101344.25
2023-12-18T21:09:00.806Z,101344.41
2023-12-18T21:11:29.881Z,101338.50
2023-12-18T21:13:57.602Z,101333.97
2023-12-18T21:16:25.936Z,101330.84
2023-12-18T21:18:53.661Z,101326.38
2023-12-18T21:21:21.789Z,101318.63
2023-12-18T21:23:49.640Z,101305.69
2023-12-18T21:26:17.314Z,101252.41
2023-12-18T21:28:46.319Z,101275.00
2023-12-18T21:31:14.483Z,101271.34
2023-12-18T21:33:42.334Z,101262.31
2023-12-18T21:36:13.903Z,101270.72
2023-12-18T21:38:41.847Z,101270.03
2023-12-18T21:41:09.506Z,101265.88
2023-12-18T21:43:37.107Z,101253.81
2023-12-18T21:46:06.371Z,101246.84
2023-12-18T21:48:34.346Z,101246.09
2023-12-18T21:51:02.124Z,101248.84
2023-12-18T21:53:30.318Z,101236.41
2023-12-18T21:55:57.996Z,101233.66
2023-12-18T21:58:25.647Z,101209.75
2023-12-18T22:00:53.549Z,101221.84
2023-12-18T22:03:22.679Z,101219.41
2023-12-18T22:05:50.688Z,101219.72
2023-12-18T22:08:18.657Z,101221.81
2023-12-18T22:10:46.411Z,101216.72
2023-12-18T22:13:14.381Z,101222.00
2023-12-18T22:15:42.423Z,101208.19
2023-12-18T22:18:10.646Z,101218.53
2023-12-18T22:20:39.697Z,101229.03
2023-12-18T22:23:07.548Z,101226.81
2023-12-18T22:25:36.664Z,101214.84
2023-12-18T22:28:06.233Z,101221.06
2023-12-18T22:30:34.679Z,101226.44
2023-12-18T22:33:02.457Z,101231.00
2023-12-18T22:35:30.158Z,101234.34
2023-12-18T22:37:59.444Z,101238.50
2023-12-18T22:40:27.131Z,101230.59
2023-12-18T22:42:54.859Z,101222.94
2023-12-18T22:45:22.912Z,101230.00
2023-12-18T22:47:50.899Z,101237.53
2023-12-18T22:50:18.758Z,101241.69
2023-12-18T22:52:46.693Z,101241.81
2023-12-18T22:55:15.722Z,101246.22
2023-12-18T22:57:43.485Z,101231.06
2023-12-18T23:00:18.096Z,101231.78
2023-12-18T23:02:45.836Z,101225.09
2023-12-18T23:05:13.591Z,101236.16
2023-12-18T23:07:41.846Z,101238.78
2023-12-18T23:10:10.469Z,101249.06
2023-12-18T23:12:39.589Z,101237.63
2023-12-18T23:15:09.236Z,101147.41
2023-12-18T23:17:36.959Z,101226.34
2023-12-18T23:20:06.597Z,101228.69
2023-12-18T23:22:35.184Z,101225.13
2023-12-18T23:25:02.963Z,101216.25
2023-12-18T23:27:30.713Z,101198.47
2023-12-18T23:30:00.489Z,101176.78
2023-12-18T23:32:28.602Z,101158.22
2023-12-18T23:34:57.162Z,101137.13
2023-12-18T23:37:25.188Z,101140.47
2023-12-18T23:39:53.467Z,101140.47
2023-12-18T23:42:21.252Z,101145.47
2023-12-18T23:44:49.102Z,101153.34
2023-12-18T23:47:18.175Z,101157.38
2023-12-18T23:49:45.938Z,101150.72
2023-12-18T23:52:15.142Z,101148.53
2023-12-18T23:54:43.217Z,101151.03
2023-12-18T23:57:11.004Z,101136.84
